Startpagina
METAR-TAF:

METAR-TAF

Vliegvelden :

Vigo, Spanje

breedte: 42-13N, lengte: 008-38W, hoogte: 264 m

Actueel weer

Dit bericht is 32 minuten geleden gemaakt, om 22:00 UTC
Wind 3 kt uit het noordwesten
Temperatuur 12°C
Vochtigheid 82%
Druk 1022 hPa
Zicht 10 km of meer
geen wolken onder 1500 m en geen cumulonimbus

METAR: LEVX 152200Z 31003KT CAVOK 12/09 Q1022 NOSIG

Tijdstip: 00:32 (22:32 UTC)

Verwachting

Dit bericht is 5 uur en het 32 minuten geleden gemaakt, om 17:00 UTC
Verwachting geldig van 15 om 18 UTC tot 16 om 18 UTC
Wind 10 kt uit het westen
Zicht 10 km of meer
Weinig wolken op 2000 ft
Verspreide wolken op 4000 ft
Wijzigt naar
van 15 om 18 UTC tot 15 om 22 UTC
Wind 2 kt uit variabele richting
Kans 30% :
Tijdelijke
van 15 om 22 UTC tot 16 om 02 UTC
Zicht: 3000 m
mistbanken
Wijzigt naar
van 16 om 10 UTC tot 16 om 14 UTC
Wind 10 kt uit het westen

TAF: LEVX 151700Z 1518/1618 28010KT 9999 FEW020 SCT040 TX20/1613Z TN08/1605Z BECMG 1518/1522 VRB02KT PROB30 TEMPO 1522/1602 3000 BCFG BECMG 1610/1614 28010KT

Waarnemingen en weersverwachtingen van meer dan 4000 vliegvelden (METAR en TAF).

De beschikbare stations zijn de gele en rode punten op de kaart.

Ga met uw muis naar het station om de naam te zien.

Klik dan om waarnemingen en weersverwachtingen te zien.

kaart wijzigen: klik op de groene knoppen met een zwart kruis om in te zoomen, op de groene knop met een streepje om uit te zoomen of op de groene pijlen voor aangrenzende kaarten.


METAR-TAF: